sensor_id;sensor_type;location;lat;lon;timestamp;P1;durP1;ratioP1;P2;durP2;ratioP2
55931;SDS011;41837;55.700;37.984;2023-06-01T00:01:55;79.43;;;38.00;;
55931;SDS011;41837;55.700;37.984;2023-06-01T00:04:21;75.70;;;36.42;;
55931;SDS011;41837;55.700;37.984;2023-06-01T00:06:47;78.53;;;37.53;;
55931;SDS011;41837;55.700;37.984;2023-06-01T00:09:13;75.75;;;37.03;;
55931;SDS011;41837;55.700;37.984;2023-06-01T00:11:40;69.40;;;33.95;;
55931;SDS011;41837;55.700;37.984;2023-06-01T00:14:06;66.57;;;32.58;;
55931;SDS011;41837;55.700;37.984;2023-06-01T00:16:33;65.68;;;30.90;;
55931;SDS011;41837;55.700;37.984;2023-06-01T00:18:59;57.95;;;27.70;;
55931;SDS011;41837;55.700;37.984;2023-06-01T00:21:29;57.13;;;24.23;;
55931;SDS011;41837;55.700;37.984;2023-06-01T00:23:58;58.92;;;24.30;;
55931;SDS011;41837;55.700;37.984;2023-06-01T00:26:24;61.30;;;24.17;;
55931;SDS011;41837;55.700;37.984;2023-06-01T00:28:52;60.53;;;23.88;;
55931;SDS011;41837;55.700;37.984;2023-06-01T00:31:18;63.50;;;24.55;;
55931;SDS011;41837;55.700;37.984;2023-06-01T00:33:45;47.83;;;22.67;;
55931;SDS011;41837;55.700;37.984;2023-06-01T00:36:11;62.10;;;23.27;;
55931;SDS011;41837;55.700;37.984;2023-06-01T00:38:38;55.95;;;23.90;;
55931;SDS011;41837;55.700;37.984;2023-06-01T00:41:04;65.93;;;24.90;;
55931;SDS011;41837;55.700;37.984;2023-06-01T00:43:31;68.85;;;23.13;;
55931;SDS011;41837;55.700;37.984;2023-06-01T00:45:57;76.55;;;27.88;;
55931;SDS011;41837;55.700;37.984;2023-06-01T00:48:23;71.25;;;29.50;;
55931;SDS011;41837;55.700;37.984;2023-06-01T00:50:52;80.55;;;30.70;;
55931;SDS011;41837;55.700;37.984;2023-06-01T00:53:19;82.72;;;33.10;;
55931;SDS011;41837;55.700;37.984;2023-06-01T00:55:46;80.35;;;32.78;;
55931;SDS011;41837;55.700;37.984;2023-06-01T00:58:13;87.75;;;34.03;;
55931;SDS011;41837;55.700;37.984;2023-06-01T01:00:40;81.32;;;32.65;;
55931;SDS011;41837;55.700;37.984;2023-06-01T01:03:07;82.53;;;32.80;;
55931;SDS011;41837;55.700;37.984;2023-06-01T01:05:35;76.15;;;30.98;;
55931;SDS011;41837;55.700;37.984;2023-06-01T01:10:42;77.00;;;29.17;;
55931;SDS011;41837;55.700;37.984;2023-06-01T01:13:20;62.67;;;26.35;;
55931;SDS011;41837;55.700;37.984;2023-06-01T01:16:02;57.75;;;24.08;;
55931;SDS011;41837;55.700;37.984;2023-06-01T01:18:39;56.17;;;23.25;;
55931;SDS011;41837;55.700;37.984;2023-06-01T01:21:09;62.90;;;22.33;;
55931;SDS011;41837;55.700;37.984;2023-06-01T01:26:46;48.33;;;17.80;;
55931;SDS011;41837;55.700;37.984;2023-06-01T01:29:23;43.38;;;16.77;;
55931;SDS011;41837;55.700;37.984;2023-06-01T01:31:51;47.47;;;17.00;;
55931;SDS011;41837;55.700;37.984;2023-06-01T01:34:19;40.72;;;15.93;;
55931;SDS011;41837;55.700;37.984;2023-06-01T01:36:46;41.13;;;18.08;;
55931;SDS011;41837;55.700;37.984;2023-06-01T01:39:13;41.65;;;17.30;;
55931;SDS011;41837;55.700;37.984;2023-06-01T01:41:39;41.42;;;16.88;;
55931;SDS011;41837;55.700;37.984;2023-06-01T01:44:06;44.65;;;16.85;;
55931;SDS011;41837;55.700;37.984;2023-06-01T01:49:44;34.95;;;15.38;;
55931;SDS011;41837;55.700;37.984;2023-06-01T01:52:15;38.72;;;15.98;;
55931;SDS011;41837;55.700;37.984;2023-06-01T01:54:45;35.63;;;15.88;;
55931;SDS011;41837;55.700;37.984;2023-06-01T01:57:13;30.95;;;15.45;;
55931;SDS011;41837;55.700;37.984;2023-06-01T01:59:40;34.15;;;15.13;;
55931;SDS011;41837;55.700;37.984;2023-06-01T02:02:08;32.97;;;14.02;;
55931;SDS011;41837;55.700;37.984;2023-06-01T02:04:42;38.38;;;14.27;;
55931;SDS011;41837;55.700;37.984;2023-06-01T02:07:12;33.72;;;12.63;;
55931;SDS011;41837;55.700;37.984;2023-06-01T02:09:39;30.70;;;12.32;;
55931;SDS011;41837;55.700;37.984;2023-06-01T02:12:07;29.02;;;11.27;;
55931;SDS011;41837;55.700;37.984;2023-06-01T02:14:34;30.13;;;11.13;;
55931;SDS011;41837;55.700;37.984;2023-06-01T02:17:01;29.67;;;12.88;;
55931;SDS011;41837;55.700;37.984;2023-06-01T02:19:29;36.42;;;12.07;;
55931;SDS011;41837;55.700;37.984;2023-06-01T02:21:55;29.88;;;11.48;;
55931;SDS011;41837;55.700;37.984;2023-06-01T02:24:22;29.95;;;12.43;;
55931;SDS011;41837;55.700;37.984;2023-06-01T02:26:48;32.00;;;13.15;;
55931;SDS011;41837;55.700;37.984;2023-06-01T02:29:18;32.70;;;13.93;;
55931;SDS011;41837;55.700;37.984;2023-06-01T02:31:48;31.58;;;14.95;;
55931;SDS011;41837;55.700;37.984;2023-06-01T02:34:17;40.05;;;19.45;;
55931;SDS011;41837;55.700;37.984;2023-06-01T02:36:44;46.15;;;21.00;;
55931;SDS011;41837;55.700;37.984;2023-06-01T02:39:10;44.63;;;20.85;;
55931;SDS011;41837;55.700;37.984;2023-06-01T02:41:37;39.03;;;18.80;;
55931;SDS011;41837;55.700;37.984;2023-06-01T02:44:02;37.95;;;20.40;;
55931;SDS011;41837;55.700;37.984;2023-06-01T02:46:28;34.92;;;20.00;;
55931;SDS011;41837;55.700;37.984;2023-06-01T02:48:55;40.65;;;17.67;;
55931;SDS011;41837;55.700;37.984;2023-06-01T02:51:21;33.78;;;14.25;;
55931;SDS011;41837;55.700;37.984;2023-06-01T02:53:55;30.10;;;11.32;;
55931;SDS011;41837;55.700;37.984;2023-06-01T02:56:21;49.15;;;9.73;;
55931;SDS011;41837;55.700;37.984;2023-06-01T02:59:07;21.48;;;8.63;;
55931;SDS011;41837;55.700;37.984;2023-06-01T03:01:37;24.42;;;8.32;;
55931;SDS011;41837;55.700;37.984;2023-06-01T03:04:05;21.83;;;9.70;;
55931;SDS011;41837;55.700;37.984;2023-06-01T03:06:33;31.23;;;10.75;;
55931;SDS011;41837;55.700;37.984;2023-06-01T03:09:06;34.42;;;10.85;;
55931;SDS011;41837;55.700;37.984;2023-06-01T03:11:48;32.55;;;13.25;;
55931;SDS011;41837;55.700;37.984;2023-06-01T03:14:15;24.38;;;13.05;;
55931;SDS011;41837;55.700;37.984;2023-06-01T03:16:42;30.92;;;13.98;;
55931;SDS011;41837;55.700;37.984;2023-06-01T03:19:19;32.22;;;15.05;;
55931;SDS011;41837;55.700;37.984;2023-06-01T03:21:49;26.58;;;13.40;;
55931;SDS011;41837;55.700;37.984;2023-06-01T03:24:22;27.52;;;12.88;;
55931;SDS011;41837;55.700;37.984;2023-06-01T03:26:55;26.90;;;11.15;;
55931;SDS011;41837;55.700;37.984;2023-06-01T03:29:23;21.55;;;10.05;;
55931;SDS011;41837;55.700;37.984;2023-06-01T03:31:49;25.42;;;9.88;;
55931;SDS011;41837;55.700;37.984;2023-06-01T03:34:19;19.98;;;9.18;;
55931;SDS011;41837;55.700;37.984;2023-06-01T03:36:47;25.20;;;9.88;;
55931;SDS011;41837;55.700;37.984;2023-06-01T03:39:14;22.33;;;8.90;;
55931;SDS011;41837;55.700;37.984;2023-06-01T03:41:42;18.90;;;9.30;;
55931;SDS011;41837;55.700;37.984;2023-06-01T03:44:10;17.95;;;8.95;;
55931;SDS011;41837;55.700;37.984;2023-06-01T03:46:37;21.38;;;7.60;;
55931;SDS011;41837;55.700;37.984;2023-06-01T03:49:04;21.60;;;9.15;;
55931;SDS011;41837;55.700;37.984;2023-06-01T03:51:31;21.17;;;6.32;;
55931;SDS011;41837;55.700;37.984;2023-06-01T03:53:57;21.33;;;6.45;;
55931;SDS011;41837;55.700;37.984;2023-06-01T03:56:23;21.02;;;6.30;;
55931;SDS011;41837;55.700;37.984;2023-06-01T03:58:51;17.95;;;6.75;;
55931;SDS011;41837;55.700;37.984;2023-06-01T04:01:18;18.33;;;6.13;;
55931;SDS011;41837;55.700;37.984;2023-06-01T04:03:48;18.50;;;5.72;;
55931;SDS011;41837;55.700;37.984;2023-06-01T04:06:14;16.25;;;5.95;;
55931;SDS011;41837;55.700;37.984;2023-06-01T04:08:46;15.25;;;6.05;;
55931;SDS011;41837;55.700;37.984;2023-06-01T04:11:17;15.25;;;5.35;;
55931;SDS011;41837;55.700;37.984;2023-06-01T04:13:44;14.32;;;5.30;;
55931;SDS011;41837;55.700;37.984;2023-06-01T04:16:11;11.55;;;4.72;;
55931;SDS011;41837;55.700;37.984;2023-06-01T04:18:38;17.40;;;5.93;;
55931;SDS011;41837;55.700;37.984;2023-06-01T04:21:05;14.25;;;5.55;;
55931;SDS011;41837;55.700;37.984;2023-06-01T04:23:33;22.40;;;6.55;;
55931;SDS011;41837;55.700;37.984;2023-06-01T04:26:01;17.02;;;6.10;;
55931;SDS011;41837;55.700;37.984;2023-06-01T04:28:29;13.35;;;4.82;;
55931;SDS011;41837;55.700;37.984;2023-06-01T04:30:58;13.80;;;5.38;;
55931;SDS011;41837;55.700;37.984;2023-06-01T04:33:26;13.02;;;5.38;;
55931;SDS011;41837;55.700;37.984;2023-06-01T04:35:53;14.60;;;4.50;;
55931;SDS011;41837;55.700;37.984;2023-06-01T04:38:25;11.38;;;4.80;;
55931;SDS011;41837;55.700;37.984;2023-06-01T04:40:52;16.33;;;5.50;;
55931;SDS011;41837;55.700;37.984;2023-06-01T04:43:21;16.33;;;5.70;;
55931;SDS011;41837;55.700;37.984;2023-06-01T04:45:49;9.85;;;5.00;;
55931;SDS011;41837;55.700;37.984;2023-06-01T04:48:17;22.52;;;4.78;;
55931;SDS011;41837;55.700;37.984;2023-06-01T04:50:49;18.95;;;4.70;;
55931;SDS011;41837;55.700;37.984;2023-06-01T04:53:16;20.02;;;4.90;;
55931;SDS011;41837;55.700;37.984;2023-06-01T04:55:42;17.63;;;4.90;;
55931;SDS011;41837;55.700;37.984;2023-06-01T04:58:10;19.83;;;4.45;;
55931;SDS011;41837;55.700;37.984;2023-06-01T05:00:36;15.23;;;4.00;;
55931;SDS011;41837;55.700;37.984;2023-06-01T05:03:03;15.77;;;3.47;;
55931;SDS011;41837;55.700;37.984;2023-06-01T05:05:29;6.15;;;2.75;;
55931;SDS011;41837;55.700;37.984;2023-06-01T05:07:56;10.02;;;2.85;;
55931;SDS011;41837;55.700;37.984;2023-06-01T05:10:23;7.32;;;2.80;;
55931;SDS011;41837;55.700;37.984;2023-06-01T05:12:49;8.57;;;2.88;;
55931;SDS011;41837;55.700;37.984;2023-06-01T05:15:17;8.82;;;3.00;;
55931;SDS011;41837;55.700;37.984;2023-06-01T05:17:44;14.45;;;3.50;;
55931;SDS011;41837;55.700;37.984;2023-06-01T05:20:15;10.30;;;3.65;;
55931;SDS011;41837;55.700;37.984;2023-06-01T05:22:47;13.02;;;3.63;;
55931;SDS011;41837;55.700;37.984;2023-06-01T05:25:14;13.70;;;3.72;;
55931;SDS011;41837;55.700;37.984;2023-06-01T05:27:40;13.07;;;3.75;;
55931;SDS011;41837;55.700;37.984;2023-06-01T05:30:06;9.45;;;3.80;;
55931;SDS011;41837;55.700;37.984;2023-06-01T05:32:33;15.57;;;4.35;;
55931;SDS011;41837;55.700;37.984;2023-06-01T05:35:09;11.88;;;4.70;;
55931;SDS011;41837;55.700;37.984;2023-06-01T05:37:35;16.30;;;5.10;;
55931;SDS011;41837;55.700;37.984;2023-06-01T05:40:01;12.70;;;4.78;;
55931;SDS011;41837;55.700;37.984;2023-06-01T05:42:30;12.02;;;4.35;;
55931;SDS011;41837;55.700;37.984;2023-06-01T05:45:09;15.00;;;4.68;;
55931;SDS011;41837;55.700;37.984;2023-06-01T05:47:36;14.02;;;3.80;;
55931;SDS011;41837;55.700;37.984;2023-06-01T05:50:02;15.95;;;4.43;;
55931;SDS011;41837;55.700;37.984;2023-06-01T05:52:30;13.45;;;3.88;;
55931;SDS011;41837;55.700;37.984;2023-06-01T05:54:57;9.68;;;3.35;;
55931;SDS011;41837;55.700;37.984;2023-06-01T05:57:23;13.90;;;4.30;;
55931;SDS011;41837;55.700;37.984;2023-06-01T05:59:49;9.20;;;4.05;;
55931;SDS011;41837;55.700;37.984;2023-06-01T06:02:42;11.18;;;4.80;;
55931;SDS011;41837;55.700;37.984;2023-06-01T06:05:09;12.57;;;5.47;;
55931;SDS011;41837;55.700;37.984;2023-06-01T06:07:35;13.75;;;5.50;;
55931;SDS011;41837;55.700;37.984;2023-06-01T06:10:02;16.77;;;6.70;;
55931;SDS011;41837;55.700;37.984;2023-06-01T06:12:30;10.70;;;5.50;;
55931;SDS011;41837;55.700;37.984;2023-06-01T06:15:08;13.10;;;5.30;;
55931;SDS011;41837;55.700;37.984;2023-06-01T06:17:35;12.25;;;5.63;;
55931;SDS011;41837;55.700;37.984;2023-06-01T06:20:01;18.65;;;4.93;;
55931;SDS011;41837;55.700;37.984;2023-06-01T06:22:32;12.05;;;4.20;;
55931;SDS011;41837;55.700;37.984;2023-06-01T06:24:58;8.55;;;3.58;;
55931;SDS011;41837;55.700;37.984;2023-06-01T06:27:25;15.45;;;3.05;;
55931;SDS011;41837;55.700;37.984;2023-06-01T06:29:52;9.85;;;3.20;;
55931;SDS011;41837;55.700;37.984;2023-06-01T06:32:18;12.98;;;3.30;;
55931;SDS011;41837;55.700;37.984;2023-06-01T06:34:46;10.23;;;2.83;;
55931;SDS011;41837;55.700;37.984;2023-06-01T06:37:12;10.80;;;2.75;;
55931;SDS011;41837;55.700;37.984;2023-06-01T06:39:38;7.60;;;2.50;;
55931;SDS011;41837;55.700;37.984;2023-06-01T06:42:04;20.48;;;3.67;;
55931;SDS011;41837;55.700;37.984;2023-06-01T06:44:31;9.02;;;2.58;;
55931;SDS011;41837;55.700;37.984;2023-06-01T06:47:09;6.07;;;2.83;;
55931;SDS011;41837;55.700;37.984;2023-06-01T06:49:40;6.53;;;2.67;;
55931;SDS011;41837;55.700;37.984;2023-06-01T06:52:08;10.45;;;2.92;;
55931;SDS011;41837;55.700;37.984;2023-06-01T06:54:38;10.57;;;2.65;;
55931;SDS011;41837;55.700;37.984;2023-06-01T06:57:04;5.97;;;2.25;;
55931;SDS011;41837;55.700;37.984;2023-06-01T06:59:31;6.63;;;2.40;;
55931;SDS011;41837;55.700;37.984;2023-06-01T07:01:57;11.07;;;2.80;;
55931;SDS011;41837;55.700;37.984;2023-06-01T07:04:23;8.02;;;2.63;;
55931;SDS011;41837;55.700;37.984;2023-06-01T07:06:49;6.85;;;2.53;;
55931;SDS011;41837;55.700;37.984;2023-06-01T07:09:17;9.68;;;2.35;;
55931;SDS011;41837;55.700;37.984;2023-06-01T07:11:43;8.70;;;2.92;;
55931;SDS011;41837;55.700;37.984;2023-06-01T07:14:11;8.93;;;2.85;;
55931;SDS011;41837;55.700;37.984;2023-06-01T07:16:37;12.02;;;2.60;;
55931;SDS011;41837;55.700;37.984;2023-06-01T07:19:03;6.65;;;1.80;;
55931;SDS011;41837;55.700;37.984;2023-06-01T07:21:29;9.98;;;4.22;;
55931;SDS011;41837;55.700;37.984;2023-06-01T07:23:55;5.22;;;2.10;;
55931;SDS011;41837;55.700;37.984;2023-06-01T07:26:22;8.80;;;2.17;;
55931;SDS011;41837;55.700;37.984;2023-06-01T07:28:50;5.38;;;2.00;;
55931;SDS011;41837;55.700;37.984;2023-06-01T07:31:19;6.65;;;2.08;;
55931;SDS011;41837;55.700;37.984;2023-06-01T07:33:46;9.45;;;2.17;;
55931;SDS011;41837;55.700;37.984;2023-06-01T07:36:12;5.10;;;2.45;;
55931;SDS011;41837;55.700;37.984;2023-06-01T07:38:40;8.95;;;1.73;;
55931;SDS011;41837;55.700;37.984;2023-06-01T07:41:08;10.05;;;2.00;;
55931;SDS011;41837;55.700;37.984;2023-06-01T07:43:37;9.38;;;1.63;;
55931;SDS011;41837;55.700;37.984;2023-06-01T07:46:04;8.18;;;1.98;;
55931;SDS011;41837;55.700;37.984;2023-06-01T07:48:31;8.00;;;2.13;;
55931;SDS011;41837;55.700;37.984;2023-06-01T07:51:02;6.90;;;1.65;;
55931;SDS011;41837;55.700;37.984;2023-06-01T07:53:28;6.55;;;2.08;;
55931;SDS011;41837;55.700;37.984;2023-06-01T07:55:54;9.02;;;1.77;;
55931;SDS011;41837;55.700;37.984;2023-06-01T07:58:21;7.70;;;2.00;;
55931;SDS011;41837;55.700;37.984;2023-06-01T08:00:47;8.20;;;2.00;;
55931;SDS011;41837;55.700;37.984;2023-06-01T08:03:14;4.93;;;1.83;;
55931;SDS011;41837;55.700;37.984;2023-06-01T08:05:41;8.55;;;1.90;;
55931;SDS011;41837;55.700;37.984;2023-06-01T08:08:10;12.00;;;2.22;;
55931;SDS011;41837;55.700;37.984;2023-06-01T08:10:36;11.13;;;1.95;;
55931;SDS011;41837;55.700;37.984;2023-06-01T08:13:05;8.80;;;1.85;;
55931;SDS011;41837;55.700;37.984;2023-06-01T08:15:33;5.35;;;1.48;;
55931;SDS011;41837;55.700;37.984;2023-06-01T08:18:14;6.93;;;1.85;;
55931;SDS011;41837;55.700;37.984;2023-06-01T08:20:41;14.20;;;2.47;;
55931;SDS011;41837;55.700;37.984;2023-06-01T08:23:07;10.32;;;2.20;;
55931;SDS011;41837;55.700;37.984;2023-06-01T08:25:34;7.68;;;1.50;;
55931;SDS011;41837;55.700;37.984;2023-06-01T08:28:00;7.32;;;1.95;;
55931;SDS011;41837;55.700;37.984;2023-06-01T08:30:26;7.40;;;1.67;;
55931;SDS011;41837;55.700;37.984;2023-06-01T08:32:53;6.55;;;1.75;;
55931;SDS011;41837;55.700;37.984;2023-06-01T08:35:19;6.05;;;1.40;;
55931;SDS011;41837;55.700;37.984;2023-06-01T08:37:51;7.30;;;1.60;;
55931;SDS011;41837;55.700;37.984;2023-06-01T08:40:17;5.63;;;1.58;;
55931;SDS011;41837;55.700;37.984;2023-06-01T08:43:03;10.05;;;1.80;;
55931;SDS011;41837;55.700;37.984;2023-06-01T08:45:47;4.43;;;1.88;;
55931;SDS011;41837;55.700;37.984;2023-06-01T08:48:16;6.38;;;1.70;;
55931;SDS011;41837;55.700;37.984;2023-06-01T08:50:44;6.60;;;1.65;;
55931;SDS011;41837;55.700;37.984;2023-06-01T08:53:18;5.72;;;1.65;;
55931;SDS011;41837;55.700;37.984;2023-06-01T08:55:54;6.63;;;1.70;;
55931;SDS011;41837;55.700;37.984;2023-06-01T08:58:22;7.93;;;1.98;;
55931;SDS011;41837;55.700;37.984;2023-06-01T09:00:50;12.00;;;2.10;;
55931;SDS011;41837;55.700;37.984;2023-06-01T09:03:19;6.75;;;1.58;;
55931;SDS011;41837;55.700;37.984;2023-06-01T09:05:45;9.18;;;1.90;;
55931;SDS011;41837;55.700;37.984;2023-06-01T09:08:11;9.80;;;2.10;;
55931;SDS011;41837;55.700;37.984;2023-06-01T09:10:38;5.20;;;1.40;;
55931;SDS011;41837;55.700;37.984;2023-06-01T09:13:05;3.58;;;1.75;;
55931;SDS011;41837;55.700;37.984;2023-06-01T09:15:31;8.90;;;1.90;;
55931;SDS011;41837;55.700;37.984;2023-06-01T09:18:06;4.63;;;1.67;;
55931;SDS011;41837;55.700;37.984;2023-06-01T09:20:36;6.28;;;1.70;;
55931;SDS011;41837;55.700;37.984;2023-06-01T09:23:04;8.85;;;1.80;;
55931;SDS011;41837;55.700;37.984;2023-06-01T09:25:31;5.43;;;1.55;;
55931;SDS011;41837;55.700;37.984;2023-06-01T09:27:59;8.25;;;1.65;;
55931;SDS011;41837;55.700;37.984;2023-06-01T09:30:36;9.88;;;1.90;;
55931;SDS011;41837;55.700;37.984;2023-06-01T09:33:06;7.65;;;1.92;;
55931;SDS011;41837;55.700;37.984;2023-06-01T09:35:40;6.47;;;1.98;;
55931;SDS011;41837;55.700;37.984;2023-06-01T09:38:07;4.95;;;1.77;;
55931;SDS011;41837;55.700;37.984;2023-06-01T09:40:34;8.30;;;1.85;;
55931;SDS011;41837;55.700;37.984;2023-06-01T09:43:01;7.63;;;1.73;;
55931;SDS011;41837;55.700;37.984;2023-06-01T09:45:28;9.15;;;2.00;;
55931;SDS011;41837;55.700;37.984;2023-06-01T09:48:15;6.70;;;2.40;;
55931;SDS011;41837;55.700;37.984;2023-06-01T09:50:43;7.38;;;1.63;;
55931;SDS011;41837;55.700;37.984;2023-06-01T09:53:10;11.98;;;2.10;;
55931;SDS011;41837;55.700;37.984;2023-06-01T09:55:41;6.88;;;1.90;;
55931;SDS011;41837;55.700;37.984;2023-06-01T09:58:23;4.60;;;2.13;;
55931;SDS011;41837;55.700;37.984;2023-06-01T10:00:50;10.88;;;2.63;;
55931;SDS011;41837;55.700;37.984;2023-06-01T10:03:17;6.68;;;1.80;;
55931;SDS011;41837;55.700;37.984;2023-06-01T10:05:45;5.95;;;1.75;;
55931;SDS011;41837;55.700;37.984;2023-06-01T10:08:13;4.47;;;1.70;;
55931;SDS011;41837;55.700;37.984;2023-06-01T10:10:41;6.55;;;1.40;;
55931;SDS011;41837;55.700;37.984;2023-06-01T10:13:12;8.65;;;1.90;;
55931;SDS011;41837;55.700;37.984;2023-06-01T10:15:39;6.18;;;1.70;;
55931;SDS011;41837;55.700;37.984;2023-06-01T10:18:06;8.73;;;2.30;;
55931;SDS011;41837;55.700;37.984;2023-06-01T10:20:33;7.05;;;2.15;;
55931;SDS011;41837;55.700;37.984;2023-06-01T10:23:03;3.83;;;1.77;;
55931;SDS011;41837;55.700;37.984;2023-06-01T10:25:39;16.98;;;6.35;;
55931;SDS011;41837;55.700;37.984;2023-06-01T10:28:10;13.70;;;2.00;;
55931;SDS011;41837;55.700;37.984;2023-06-01T10:30:37;6.43;;;1.80;;
55931;SDS011;41837;55.700;37.984;2023-06-01T10:33:05;6.15;;;1.67;;
55931;SDS011;41837;55.700;37.984;2023-06-01T10:40:39;5.32;;;1.73;;
55931;SDS011;41837;55.700;37.984;2023-06-01T10:43:07;7.97;;;1.52;;
55931;SDS011;41837;55.700;37.984;2023-06-01T10:45:37;7.55;;;1.70;;
55931;SDS011;41837;55.700;37.984;2023-06-01T10:48:06;8.05;;;1.80;;
55931;SDS011;41837;55.700;37.984;2023-06-01T10:50:34;6.97;;;1.70;;
55931;SDS011;41837;55.700;37.984;2023-06-01T10:53:43;5.60;;;1.60;;
55931;SDS011;41837;55.700;37.984;2023-06-01T11:01:38;9.75;;;1.83;;
55931;SDS011;41837;55.700;37.984;2023-06-01T11:06:35;9.45;;;1.73;;
55931;SDS011;41837;55.700;37.984;2023-06-01T11:09:04;6.13;;;1.52;;
55931;SDS011;41837;55.700;37.984;2023-06-01T11:11:56;12.23;;;1.80;;
55931;SDS011;41837;55.700;37.984;2023-06-01T11:14:25;4.70;;;1.55;;
55931;SDS011;41837;55.700;37.984;2023-06-01T11:16:56;8.07;;;2.47;;
55931;SDS011;41837;55.700;37.984;2023-06-01T11:19:56;9.63;;;2.05;;
55931;SDS011;41837;55.700;37.984;2023-06-01T11:22:24;8.75;;;1.70;;
55931;SDS011;41837;55.700;37.984;2023-06-01T11:24:51;9.48;;;1.75;;
55931;SDS011;41837;55.700;37.984;2023-06-01T11:27:20;6.30;;;1.50;;
55931;SDS011;41837;55.700;37.984;2023-06-01T11:29:47;9.20;;;1.70;;
55931;SDS011;41837;55.700;37.984;2023-06-01T11:32:16;8.52;;;1.58;;
55931;SDS011;41837;55.700;37.984;2023-06-01T11:34:48;11.85;;;1.85;;
55931;SDS011;41837;55.700;37.984;2023-06-01T11:37:14;12.50;;;2.33;;
55931;SDS011;41837;55.700;37.984;2023-06-01T11:39:41;7.15;;;1.80;;
55931;SDS011;41837;55.700;37.984;2023-06-01T11:42:09;12.10;;;1.77;;
55931;SDS011;41837;55.700;37.984;2023-06-01T11:44:40;8.85;;;1.50;;
55931;SDS011;41837;55.700;37.984;2023-06-01T11:47:08;12.75;;;1.80;;
55931;SDS011;41837;55.700;37.984;2023-06-01T11:49:45;6.53;;;1.75;;
55931;SDS011;41837;55.700;37.984;2023-06-01T11:52:15;5.43;;;1.52;;
55931;SDS011;41837;55.700;37.984;2023-06-01T11:54:45;9.00;;;1.85;;
55931;SDS011;41837;55.700;37.984;2023-06-01T11:57:12;7.63;;;2.00;;
55931;SDS011;41837;55.700;37.984;2023-06-01T11:59:39;5.75;;;2.15;;
55931;SDS011;41837;55.700;37.984;2023-06-01T12:02:28;14.65;;;1.98;;
55931;SDS011;41837;55.700;37.984;2023-06-01T12:07:42;7.95;;;1.90;;
55931;SDS011;41837;55.700;37.984;2023-06-01T12:10:20;6.25;;;1.77;;
55931;SDS011;41837;55.700;37.984;2023-06-01T12:12:47;10.43;;;2.00;;
55931;SDS011;41837;55.700;37.984;2023-06-01T12:15:14;4.03;;;1.95;;
55931;SDS011;41837;55.700;37.984;2023-06-01T12:17:55;10.38;;;2.03;;
55931;SDS011;41837;55.700;37.984;2023-06-01T12:20:29;10.30;;;1.70;;
55931;SDS011;41837;55.700;37.984;2023-06-01T12:22:57;8.63;;;1.83;;
55931;SDS011;41837;55.700;37.984;2023-06-01T12:25:25;3.30;;;1.48;;
55931;SDS011;41837;55.700;37.984;2023-06-01T12:28:01;9.23;;;1.80;;
55931;SDS011;41837;55.700;37.984;2023-06-01T12:30:31;6.93;;;1.60;;
55931;SDS011;41837;55.700;37.984;2023-06-01T12:32:57;8.40;;;1.80;;
55931;SDS011;41837;55.700;37.984;2023-06-01T12:35:23;7.43;;;1.60;;
55931;SDS011;41837;55.700;37.984;2023-06-01T12:38:23;6.85;;;1.90;;
55931;SDS011;41837;55.700;37.984;2023-06-01T12:40:42;11.38;;;1.77;;
55931;SDS011;41837;55.700;37.984;2023-06-01T12:43:18;7.22;;;1.70;;
55931;SDS011;41837;55.700;37.984;2023-06-01T12:45:44;7.55;;;1.60;;
55931;SDS011;41837;55.700;37.984;2023-06-01T12:48:32;7.97;;;1.90;;
55931;SDS011;41837;55.700;37.984;2023-06-01T12:51:03;5.43;;;1.75;;
55931;SDS011;41837;55.700;37.984;2023-06-01T12:53:30;9.18;;;1.75;;
55931;SDS011;41837;55.700;37.984;2023-06-01T12:55:56;22.55;;;2.10;;
55931;SDS011;41837;55.700;37.984;2023-06-01T12:58:23;5.80;;;1.63;;
55931;SDS011;41837;55.700;37.984;2023-06-01T13:00:49;7.97;;;1.67;;
55931;SDS011;41837;55.700;37.984;2023-06-01T13:03:15;5.88;;;1.50;;
55931;SDS011;41837;55.700;37.984;2023-06-01T13:05:41;4.97;;;1.92;;
55931;SDS011;41837;55.700;37.984;2023-06-01T13:08:14;7.65;;;2.20;;
55931;SDS011;41837;55.700;37.984;2023-06-01T13:10:41;5.03;;;2.25;;
55931;SDS011;41837;55.700;37.984;2023-06-01T13:13:08;5.40;;;1.95;;
55931;SDS011;41837;55.700;37.984;2023-06-01T13:15:34;11.27;;;2.00;;
55931;SDS011;41837;55.700;37.984;2023-06-01T13:18:01;15.38;;;1.95;;
55931;SDS011;41837;55.700;37.984;2023-06-01T13:20:29;9.27;;;2.20;;
55931;SDS011;41837;55.700;37.984;2023-06-01T13:22:55;7.57;;;2.97;;
55931;SDS011;41837;55.700;37.984;2023-06-01T13:25:21;7.00;;;1.73;;
55931;SDS011;41837;55.700;37.984;2023-06-01T13:27:48;6.75;;;1.80;;
55931;SDS011;41837;55.700;37.984;2023-06-01T13:30:14;4.95;;;1.90;;
55931;SDS011;41837;55.700;37.984;2023-06-01T13:32:40;10.65;;;2.40;;
55931;SDS011;41837;55.700;37.984;2023-06-01T13:35:06;10.18;;;2.20;;
55931;SDS011;41837;55.700;37.984;2023-06-01T13:37:34;8.18;;;1.90;;
55931;SDS011;41837;55.700;37.984;2023-06-01T13:40:01;15.32;;;2.20;;
55931;SDS011;41837;55.700;37.984;2023-06-01T13:42:29;10.93;;;1.80;;
55931;SDS011;41837;55.700;37.984;2023-06-01T13:44:56;11.52;;;2.13;;
55931;SDS011;41837;55.700;37.984;2023-06-01T13:47:23;6.57;;;2.03;;
55931;SDS011;41837;55.700;37.984;2023-06-01T13:49:48;6.72;;;2.20;;
55931;SDS011;41837;55.700;37.984;2023-06-01T13:52:15;5.82;;;1.70;;
55931;SDS011;41837;55.700;37.984;2023-06-01T13:54:41;7.78;;;2.45;;
55931;SDS011;41837;55.700;37.984;2023-06-01T13:57:08;5.68;;;2.70;;
55931;SDS011;41837;55.700;37.984;2023-06-01T13:59:35;13.32;;;3.58;;
55931;SDS011;41837;55.700;37.984;2023-06-01T14:02:02;8.70;;;3.00;;
55931;SDS011;41837;55.700;37.984;2023-06-01T14:04:29;5.32;;;2.70;;
55931;SDS011;41837;55.700;37.984;2023-06-01T14:06:56;15.60;;;3.50;;
55931;SDS011;41837;55.700;37.984;2023-06-01T14:09:23;10.20;;;2.03;;
55931;SDS011;41837;55.700;37.984;2023-06-01T14:11:49;15.20;;;2.50;;
55931;SDS011;41837;55.700;37.984;2023-06-01T14:14:15;8.00;;;1.67;;
55931;SDS011;41837;55.700;37.984;2023-06-01T14:16:42;3.92;;;1.75;;
55931;SDS011;41837;55.700;37.984;2023-06-01T14:19:08;10.40;;;2.20;;
55931;SDS011;41837;55.700;37.984;2023-06-01T14:21:35;6.78;;;2.10;;
55931;SDS011;41837;55.700;37.984;2023-06-01T14:24:02;12.63;;;2.70;;
55931;SDS011;41837;55.700;37.984;2023-06-01T14:26:28;9.90;;;2.10;;
55931;SDS011;41837;55.700;37.984;2023-06-01T14:28:55;10.88;;;2.30;;
55931;SDS011;41837;55.700;37.984;2023-06-01T14:31:24;22.00;;;10.10;;
55931;SDS011;41837;55.700;37.984;2023-06-01T14:33:51;5.20;;;2.40;;
55931;SDS011;41837;55.700;37.984;2023-06-01T14:36:17;8.30;;;2.17;;
55931;SDS011;41837;55.700;37.984;2023-06-01T14:38:46;5.78;;;1.90;;
55931;SDS011;41837;55.700;37.984;2023-06-01T14:41:12;4.30;;;1.65;;
55931;SDS011;41837;55.700;37.984;2023-06-01T14:43:39;8.23;;;2.20;;
55931;SDS011;41837;55.700;37.984;2023-06-01T14:46:06;7.03;;;1.77;;
55931;SDS011;41837;55.700;37.984;2023-06-01T14:48:32;8.82;;;2.00;;
55931;SDS011;41837;55.700;37.984;2023-06-01T14:50:58;11.13;;;1.92;;
55931;SDS011;41837;55.700;37.984;2023-06-01T14:53:24;9.27;;;2.25;;
55931;SDS011;41837;55.700;37.984;2023-06-01T14:55:51;5.25;;;2.22;;
55931;SDS011;41837;55.700;37.984;2023-06-01T14:58:17;7.65;;;2.58;;